Orfeas — V7FK4 — position and weather

sailwx.info

Track history (hours):
 
Tides and Currents Weather Stations Pressure Air Temp Water Temp Dewpoint Dewpoint Depression Visibility Wind Speed Wind Dir Waves Ship Positions

Orfeas

Last reported at 2018-Feb-19 00:00 UTC. Time now 2018-Feb-19 00:25 UTC.
Position N 51°59' E 003°44'.

Length 192 m; draft 12.2 m.

Type: Cargo ship. MMSI: 538001960.

Date/timePositionNaut miles runAvg speedWind from/ knotsBaromVisibWave heightAir tempDewpointWater temp
2018-Feb-19 00:00N 51°59' E 003°44'5 9.0
2018-Feb-18 23:28N 51°58' E 003°36'511.0
2018-Feb-18 23:00N 51°56' E 003°28'1011.6
2018-Feb-18 22:10N 51°54' E 003°13'511.7
2018-Feb-18 21:45N 51°52' E 003°06'311.8
2018-Feb-18 21:29N 51°51' E 003°01'1512.0
2018-Feb-18 20:16N 51°46' E 002°39'512.6
2018-Feb-18 19:50N 51°42' E 002°32'412.7
2018-Feb-18 19:31N 51°39' E 002°28'713.0
2018-Feb-18 19:00N 51°34' E 002°21'713.6
2018-Feb-18 18:30N 51°29' E 002°14'713.6
2018-Feb-18 18:00N 51°24' E 002°07'713.4
2018-Feb-18 17:30N 51°17' E 002°06'713.7
2018-Feb-18 17:01N 51°12' E 001°59'714.0
2018-Feb-18 16:31N 51°09' E 001°49'714.7
2018-Feb-18 16:00N 51°04' E 001°40'815.3
2018-Feb-18 15:31N 50°58' E 001°32'5513.5
2018-Feb-18 11:25N 50°23' E 000°25'615.0
2018-Feb-18 10:59N 50°21' E 000°15'1015.4
2018-Feb-18 10:22N 50°19' E 000°01'615.6
2018-Feb-18 10:00N 50°17' W 000°08'1215.6
2018-Feb-18 09:14N 50°14' W 000°26'2715.1
2018-Feb-18 07:29N 50°07' W 001°06'714.2
2018-Feb-18 07:01N 50°06' W 001°16'713.4
2018-Feb-18 06:30N 50°04' W 001°27'612.5
2018-Feb-18 06:00N 50°03' W 001°36'611.6
2018-Feb-18 05:30N 50°02' W 001°45'510.8
2018-Feb-18 05:00N 50°00' W 001°53'510.0
2018-Feb-18 04:30N 49°59' W 002°00'9 9.5
2018-Feb-18 03:34N 49°57' W 002°14'1 9.2
2018-Feb-18 03:29N 49°57' W 002°15'1810.1
2018-Feb-18 01:44N 49°53' W 002°42'411.2
2018-Feb-18 01:21N 49°51' W 002°48'411.5
2018-Feb-18 00:58N 49°50' W 002°54'911.6
2018-Feb-18 00:12N 49°45' W 003°07'9313.1
2018-Feb-17 17:08N 48°59' W 005°09'513.0
2018-Feb-17 16:45N 48°55' W 005°15'413.6
2018-Feb-17 16:26N 48°53' W 005°20'613.6
2018-Feb-17 16:00N 48°49' W 005°27'713.4
2018-Feb-17 15:30N 48°45' W 005°35'713.2
2018-Feb-17 15:00N 48°40' W 005°41'  
2018-Feb-13 05:51N 28°52' W 015°02'412.7
2018-Feb-13 05:30N 28°47' W 015°03'612.5
2018-Feb-13 05:00N 28°41' W 015°05'612.2
2018-Feb-13 04:30N 28°36' W 015°07'612.5
2018-Feb-13 04:00N 28°30' W 015°09'712.6
2018-Feb-13 03:29N 28°23' W 015°11'612.7
2018-Feb-13 03:00N 28°18' W 015°14'612.4
2018-Feb-13 02:30N 28°12' W 015°17'5 9.9
2018-Feb-13 02:00N 28°08' W 015°20'1 2.4
2018-Feb-13 01:30N 28°07' W 015°20'4 9.0
2018-Feb-13 01:00N 28°06' W 015°15'611.0
2018-Feb-13 00:30N 28°04' W 015°09'712.7
2018-Feb-12 23:59N 28°03' W 015°01'510.2
2018-Feb-12 23:30N 27°59' W 014°58'612.8
2018-Feb-12 23:00N 27°53' W 015°00'712.9
2018-Feb-12 22:30N 27°47' W 015°03'612.8
2018-Feb-12 22:00N 27°41' W 015°06'612.9
2018-Feb-12 21:30N 27°35' W 015°09'  
Track history (hours):
 
Tides and Currents Weather Stations Pressure Air Temp Water Temp Dewpoint Dewpoint Depression Visibility Wind Speed Wind Dir Waves Ship Positions

Orfeas

Last reported at 2018-Feb-19 00:00 UTC. Time now 2018-Feb-19 00:25 UTC.
Position N 51°59' E 003°44'.

Length 192 m; draft 12.2 m.

Type: Cargo ship. MMSI: 538001960.

Date/timePositionNaut miles runAvg speedWind from/ knotsBaromVisibWave heightAir tempDewpointWater temp
2018-Feb-19 00:00N 51°59' E 003°44'5 9.0
2018-Feb-18 23:28N 51°58' E 003°36'511.0
2018-Feb-18 23:00N 51°56' E 003°28'1011.6
2018-Feb-18 22:10N 51°54' E 003°13'511.7
2018-Feb-18 21:45N 51°52' E 003°06'311.8
2018-Feb-18 21:29N 51°51' E 003°01'1512.0
2018-Feb-18 20:16N 51°46' E 002°39'512.6
2018-Feb-18 19:50N 51°42' E 002°32'412.7
2018-Feb-18 19:31N 51°39' E 002°28'713.0
2018-Feb-18 19:00N 51°34' E 002°21'713.6
2018-Feb-18 18:30N 51°29' E 002°14'713.6
2018-Feb-18 18:00N 51°24' E 002°07'713.4
2018-Feb-18 17:30N 51°17' E 002°06'713.7
2018-Feb-18 17:01N 51°12' E 001°59'714.0
2018-Feb-18 16:31N 51°09' E 001°49'714.7
2018-Feb-18 16:00N 51°04' E 001°40'815.3
2018-Feb-18 15:31N 50°58' E 001°32'5513.5
2018-Feb-18 11:25N 50°23' E 000°25'615.0
2018-Feb-18 10:59N 50°21' E 000°15'1015.4
2018-Feb-18 10:22N 50°19' E 000°01'615.6
2018-Feb-18 10:00N 50°17' W 000°08'1215.6
2018-Feb-18 09:14N 50°14' W 000°26'2715.1
2018-Feb-18 07:29N 50°07' W 001°06'714.2
2018-Feb-18 07:01N 50°06' W 001°16'713.4
2018-Feb-18 06:30N 50°04' W 001°27'612.5
2018-Feb-18 06:00N 50°03' W 001°36'611.6
2018-Feb-18 05:30N 50°02' W 001°45'510.8
2018-Feb-18 05:00N 50°00' W 001°53'510.0
2018-Feb-18 04:30N 49°59' W 002°00'9 9.5
2018-Feb-18 03:34N 49°57' W 002°14'1 9.2
2018-Feb-18 03:29N 49°57' W 002°15'1810.1
2018-Feb-18 01:44N 49°53' W 002°42'411.2
2018-Feb-18 01:21N 49°51' W 002°48'411.5
2018-Feb-18 00:58N 49°50' W 002°54'911.6
2018-Feb-18 00:12N 49°45' W 003°07'9313.1
2018-Feb-17 17:08N 48°59' W 005°09'513.0
2018-Feb-17 16:45N 48°55' W 005°15'413.6
2018-Feb-17 16:26N 48°53' W 005°20'613.6
2018-Feb-17 16:00N 48°49' W 005°27'713.4
2018-Feb-17 15:30N 48°45' W 005°35'713.2
2018-Feb-17 15:00N 48°40' W 005°41'  
2018-Feb-13 05:51N 28°52' W 015°02'412.7
2018-Feb-13 05:30N 28°47' W 015°03'612.5
2018-Feb-13 05:00N 28°41' W 015°05'612.2
2018-Feb-13 04:30N 28°36' W 015°07'612.5
2018-Feb-13 04:00N 28°30' W 015°09'712.6
2018-Feb-13 03:29N 28°23' W 015°11'612.7
2018-Feb-13 03:00N 28°18' W 015°14'612.4
2018-Feb-13 02:30N 28°12' W 015°17'5 9.9
2018-Feb-13 02:00N 28°08' W 015°20'1 2.4
2018-Feb-13 01:30N 28°07' W 015°20'4 9.0
2018-Feb-13 01:00N 28°06' W 015°15'611.0
2018-Feb-13 00:30N 28°04' W 015°09'712.7
2018-Feb-12 23:59N 28°03' W 015°01'510.2
2018-Feb-12 23:30N 27°59' W 014°58'612.8
2018-Feb-12 23:00N 27°53' W 015°00'712.9
2018-Feb-12 22:30N 27°47' W 015°03'612.8
2018-Feb-12 22:00N 27°41' W 015°06'612.9
2018-Feb-12 21:30N 27°35' W 015°09'  

Dump ship's entire track history